sensor_id;sensor_type;location;lat;lon;timestamp;pressure;altitude;pressure_sealevel;temperature;humidity
58975;BME280;44751;52.236;5.178;2023-02-07T00:01:56;103891.50;;;-0.92;100.00
58975;BME280;44751;52.236;5.178;2023-02-07T00:04:22;103888.88;;;-0.95;100.00
58975;BME280;44751;52.236;5.178;2023-02-07T00:06:49;103881.88;;;-0.98;100.00
58975;BME280;44751;52.236;5.178;2023-02-07T00:09:27;103884.44;;;-0.92;100.00
58975;BME280;44751;52.236;5.178;2023-02-07T00:11:54;103887.09;;;-0.93;100.00
58975;BME280;44751;52.236;5.178;2023-02-07T00:14:21;103878.38;;;-1.00;100.00
58975;BME280;44751;52.236;5.178;2023-02-07T00:16:53;103867.09;;;-1.11;100.00
58975;BME280;44751;52.236;5.178;2023-02-07T00:19:20;103867.81;;;-1.01;100.00
58975;BME280;44751;52.236;5.178;2023-02-07T00:21:46;103874.94;;;-1.05;100.00
58975;BME280;44751;52.236;5.178;2023-02-07T00:24:13;103868.09;;;-1.17;100.00
58975;BME280;44751;52.236;5.178;2023-02-07T00:26:42;103864.53;;;-1.16;100.00
58975;BME280;44751;52.236;5.178;2023-02-07T00:29:11;103870.78;;;-1.20;100.00
58975;BME280;44751;52.236;5.178;2023-02-07T00:31:38;103874.16;;;-1.12;100.00
58975;BME280;44751;52.236;5.178;2023-02-07T00:34:06;103876.94;;;-1.18;100.00
58975;BME280;44751;52.236;5.178;2023-02-07T00:36:34;103870.50;;;-1.03;100.00
58975;BME280;44751;52.236;5.178;2023-02-07T00:39:07;103862.75;;;-1.14;100.00
58975;BME280;44751;52.236;5.178;2023-02-07T00:41:37;103878.59;;;-1.11;100.00
58975;BME280;44751;52.236;5.178;2023-02-07T00:44:05;103866.09;;;-1.04;100.00
58975;BME280;44751;52.236;5.178;2023-02-07T00:46:34;103866.00;;;-0.99;100.00
58975;BME280;44751;52.236;5.178;2023-02-07T00:49:02;103867.78;;;-0.98;100.00
58975;BME280;44751;52.236;5.178;2023-02-07T00:51:32;103869.72;;;-1.10;100.00
58975;BME280;44751;52.236;5.178;2023-02-07T00:53:59;103872.56;;;-1.21;100.00
58975;BME280;44751;52.236;5.178;2023-02-07T00:56:28;103868.03;;;-1.14;100.00
58975;BME280;44751;52.236;5.178;2023-02-07T00:58:55;103861.09;;;-1.21;100.00
58975;BME280;44751;52.236;5.178;2023-02-07T01:01:33;103878.50;;;-1.08;100.00
58975;BME280;44751;52.236;5.178;2023-02-07T01:04:00;103862.56;;;-1.05;100.00
58975;BME280;44751;52.236;5.178;2023-02-07T01:06:27;103864.44;;;-1.11;100.00
58975;BME280;44751;52.236;5.178;2023-02-07T01:09:01;103861.00;;;-1.15;100.00
58975;BME280;44751;52.236;5.178;2023-02-07T01:11:28;103869.84;;;-1.18;100.00
58975;BME280;44751;52.236;5.178;2023-02-07T01:13:59;103878.47;;;-1.05;100.00
58975;BME280;44751;52.236;5.178;2023-02-07T01:16:32;103873.56;;;-1.26;100.00
58975;BME280;44751;52.236;5.178;2023-02-07T01:19:07;103873.56;;;-1.28;100.00
58975;BME280;44751;52.236;5.178;2023-02-07T01:21:34;103876.22;;;-1.28;100.00
58975;BME280;44751;52.236;5.178;2023-02-07T01:24:01;103871.00;;;-1.33;100.00
58975;BME280;44751;52.236;5.178;2023-02-07T01:26:33;103878.03;;;-1.32;100.00
58975;BME280;44751;52.236;5.178;2023-02-07T01:29:05;103886.06;;;-1.36;100.00
58975;BME280;44751;52.236;5.178;2023-02-07T01:31:34;103877.28;;;-1.40;100.00
58975;BME280;44751;52.236;5.178;2023-02-07T01:34:01;103884.22;;;-1.31;100.00
58975;BME280;44751;52.236;5.178;2023-02-07T08:04:54;103903.28;;;-2.31;100.00
58975;BME280;44751;52.236;5.178;2023-02-07T08:07:28;103900.38;;;-2.13;100.00
58975;BME280;44751;52.236;5.178;2023-02-07T08:09:54;103909.25;;;-2.15;100.00
58975;BME280;44751;52.236;5.178;2023-02-07T08:12:21;103907.38;;;-2.07;100.00
58975;BME280;44751;52.236;5.178;2023-02-07T08:14:47;103899.38;;;-2.02;100.00
58975;BME280;44751;52.236;5.178;2023-02-07T08:17:14;103897.69;;;-2.08;100.00
58975;BME280;44751;52.236;5.178;2023-02-07T08:19:43;103897.47;;;-1.89;100.00
58975;BME280;44751;52.236;5.178;2023-02-07T08:22:09;103898.47;;;-2.00;100.00
58975;BME280;44751;52.236;5.178;2023-02-07T08:24:44;103917.03;;;-2.04;100.00
58975;BME280;44751;52.236;5.178;2023-02-07T08:27:14;103906.41;;;-2.00;100.00
58975;BME280;44751;52.236;5.178;2023-02-07T08:29:49;103901.91;;;-1.93;100.00
58975;BME280;44751;52.236;5.178;2023-02-07T08:32:16;103909.88;;;-1.96;100.00
58975;BME280;44751;52.236;5.178;2023-02-07T08:34:45;103900.13;;;-1.92;100.00
58975;BME280;44751;52.236;5.178;2023-02-07T08:37:16;103902.56;;;-1.77;100.00
58975;BME280;44751;52.236;5.178;2023-02-07T08:39:45;103895.22;;;-1.56;100.00
58975;BME280;44751;52.236;5.178;2023-02-07T08:42:12;103900.53;;;-1.59;100.00
58975;BME280;44751;52.236;5.178;2023-02-07T08:44:48;103906.56;;;-1.49;100.00
58975;BME280;44751;52.236;5.178;2023-02-07T08:47:24;103920.69;;;-1.47;100.00
58975;BME280;44751;52.236;5.178;2023-02-07T08:49:50;103915.22;;;-1.38;100.00
58975;BME280;44751;52.236;5.178;2023-02-07T08:52:20;103912.56;;;-1.36;100.00
58975;BME280;44751;52.236;5.178;2023-02-07T08:54:53;103919.50;;;-1.29;100.00
58975;BME280;44751;52.236;5.178;2023-02-07T08:57:22;103929.81;;;-1.12;100.00
58975;BME280;44751;52.236;5.178;2023-02-07T08:59:52;103937.56;;;-0.99;100.00
58975;BME280;44751;52.236;5.178;2023-02-07T09:02:21;103935.63;;;-0.91;100.00
58975;BME280;44751;52.236;5.178;2023-02-07T09:04:58;103914.59;;;-0.99;100.00
58975;BME280;44751;52.236;5.178;2023-02-07T09:07:24;103903.81;;;-0.89;100.00
58975;BME280;44751;52.236;5.178;2023-02-07T22:07:20;103806.41;;;-2.40;100.00
58975;BME280;44751;52.236;5.178;2023-02-07T22:09:49;103812.56;;;-2.38;100.00
58975;BME280;44751;52.236;5.178;2023-02-07T22:12:15;103811.81;;;-2.48;100.00
58975;BME280;44751;52.236;5.178;2023-02-07T22:14:42;103814.53;;;-2.56;100.00
58975;BME280;44751;52.236;5.178;2023-02-07T22:17:16;103820.88;;;-2.69;100.00
58975;BME280;44751;52.236;5.178;2023-02-07T22:19:43;103813.59;;;-2.50;100.00
58975;BME280;44751;52.236;5.178;2023-02-07T22:22:09;103810.09;;;-2.52;100.00
58975;BME280;44751;52.236;5.178;2023-02-07T22:24:36;103815.38;;;-2.52;100.00
58975;BME280;44751;52.236;5.178;2023-02-07T22:27:05;103819.97;;;-2.65;100.00
58975;BME280;44751;52.236;5.178;2023-02-07T22:29:32;103817.31;;;-2.67;100.00
58975;BME280;44751;52.236;5.178;2023-02-07T22:31:58;103802.31;;;-2.65;100.00
58975;BME280;44751;52.236;5.178;2023-02-07T22:34:24;103819.97;;;-2.67;100.00
58975;BME280;44751;52.236;5.178;2023-02-07T22:36:51;103807.72;;;-2.76;100.00
58975;BME280;44751;52.236;5.178;2023-02-07T22:39:18;103816.50;;;-2.72;100.00
58975;BME280;44751;52.236;5.178;2023-02-07T22:41:47;103814.63;;;-2.62;100.00
58975;BME280;44751;52.236;5.178;2023-02-07T22:44:13;103808.47;;;-2.64;100.00
58975;BME280;44751;52.236;5.178;2023-02-07T22:46:40;103804.06;;;-2.62;100.00
58975;BME280;44751;52.236;5.178;2023-02-07T22:49:07;103804.16;;;-2.72;100.00
58975;BME280;44751;52.236;5.178;2023-02-07T22:51:35;103797.03;;;-2.65;100.00
58975;BME280;44751;52.236;5.178;2023-02-07T22:54:08;103805.78;;;-2.60;100.00
58975;BME280;44751;52.236;5.178;2023-02-07T22:56:36;103796.16;;;-2.64;100.00
58975;BME280;44751;52.236;5.178;2023-02-07T22:59:03;103791.78;;;-2.66;100.00
58975;BME280;44751;52.236;5.178;2023-02-07T23:01:35;103794.53;;;-2.77;100.00
58975;BME280;44751;52.236;5.178;2023-02-07T23:04:04;103792.03;;;-2.88;100.00
58975;BME280;44751;52.236;5.178;2023-02-07T23:06:31;103796.31;;;-2.78;100.00
58975;BME280;44751;52.236;5.178;2023-02-07T23:08:58;103798.06;;;-2.77;100.00
58975;BME280;44751;52.236;5.178;2023-02-07T23:11:24;103781.56;;;-2.97;100.00
58975;BME280;44751;52.236;5.178;2023-02-07T23:13:51;103795.56;;;-2.89;100.00
58975;BME280;44751;52.236;5.178;2023-02-07T23:16:23;103796.50;;;-2.93;100.00
58975;BME280;44751;52.236;5.178;2023-02-07T23:18:51;103793.72;;;-2.84;100.00
58975;BME280;44751;52.236;5.178;2023-02-07T23:21:21;103794.53;;;-2.79;100.00
58975;BME280;44751;52.236;5.178;2023-02-07T23:23:50;103792.84;;;-2.85;100.00
58975;BME280;44751;52.236;5.178;2023-02-07T23:26:20;103794.66;;;-2.88;100.00
58975;BME280;44751;52.236;5.178;2023-02-07T23:28:46;103794.50;;;-2.73;100.00
58975;BME280;44751;52.236;5.178;2023-02-07T23:31:15;103805.19;;;-2.82;100.00
58975;BME280;44751;52.236;5.178;2023-02-07T23:33:41;103816.69;;;-2.89;100.00
58975;BME280;44751;52.236;5.178;2023-02-07T23:36:12;103807.97;;;-2.94;100.00
58975;BME280;44751;52.236;5.178;2023-02-07T23:38:41;103812.22;;;-2.84;100.00
58975;BME280;44751;52.236;5.178;2023-02-07T23:41:08;103810.38;;;-2.77;100.00
58975;BME280;44751;52.236;5.178;2023-02-07T23:43:35;103811.28;;;-2.78;100.00
58975;BME280;44751;52.236;5.178;2023-02-07T23:46:05;103811.31;;;-2.81;100.00
58975;BME280;44751;52.236;5.178;2023-02-07T23:48:35;103799.19;;;-3.00;100.00
58975;BME280;44751;52.236;5.178;2023-02-07T23:51:02;103799.16;;;-2.96;100.00
58975;BME280;44751;52.236;5.178;2023-02-07T23:53:29;103790.41;;;-2.99;100.00
58975;BME280;44751;52.236;5.178;2023-02-07T23:55:56;103796.63;;;-3.04;100.00
58975;BME280;44751;52.236;5.178;2023-02-07T23:58:23;103808.03;;;-3.04;100.00
